createdAt,value
2024-02-20T00:00:29.000Z,6.00
2024-02-20T00:01:34.779Z,6.00
2024-02-20T00:02:50.673Z,5.90
2024-02-20T00:03:58.937Z,5.90
2024-02-20T00:05:07.400Z,6.00
2024-02-20T00:06:14.541Z,6.00
2024-02-20T00:07:23.073Z,6.00
2024-02-20T00:08:30.942Z,5.90
2024-02-20T00:09:38.517Z,5.90
2024-02-20T00:10:50.444Z,6.00
2024-02-20T00:11:58.590Z,6.00
2024-02-20T00:13:04.849Z,5.90
2024-02-20T00:14:14.848Z,6.00
2024-02-20T00:15:25.295Z,6.00
2024-02-20T00:16:30.200Z,6.00
2024-02-20T00:17:38.236Z,6.00
2024-02-20T00:18:44.320Z,6.00
2024-02-20T00:19:50.092Z,6.00
2024-02-20T00:20:55.086Z,5.90
2024-02-20T00:22:01.776Z,5.90
2024-02-20T00:23:11.655Z,5.90
2024-02-20T00:24:18.321Z,5.90
2024-02-20T00:25:27.474Z,6.00
2024-02-20T00:26:37.871Z,6.00
2024-02-20T00:27:44.494Z,5.90
2024-02-20T00:28:50.354Z,5.90
2024-02-20T00:29:58.049Z,5.90
2024-02-20T00:31:07.078Z,5.90
2024-02-20T00:32:14.877Z,6.00
2024-02-20T00:33:30.189Z,6.00
2024-02-20T00:34:34.895Z,6.00
2024-02-20T00:35:40.909Z,6.00
2024-02-20T00:36:46.369Z,5.90
2024-02-20T00:37:50.717Z,5.90
2024-02-20T00:38:58.572Z,6.00
2024-02-20T00:40:10.395Z,5.90
2024-02-20T00:41:18.540Z,6.00
2024-02-20T00:42:29.993Z,6.00
2024-02-20T00:43:38.079Z,6.00
2024-02-20T00:44:43.115Z,6.00
2024-02-20T00:45:54.263Z,5.90
2024-02-20T00:47:06.616Z,5.90
2024-02-20T00:48:14.800Z,6.00
2024-02-20T00:49:22.298Z,5.90
2024-02-20T00:50:29.810Z,6.00
2024-02-20T00:51:38.251Z,6.00
2024-02-20T00:52:44.839Z,6.00
2024-02-20T00:53:50.200Z,6.00
2024-02-20T00:54:58.064Z,6.00
2024-02-20T00:56:10.176Z,6.00
2024-02-20T00:57:17.360Z,6.00
2024-02-20T00:58:34.767Z,5.90
2024-02-20T00:59:43.043Z,6.00
2024-02-20T01:00:54.338Z,6.00
2024-02-20T01:02:02.828Z,5.90
2024-02-20T01:03:13.494Z,5.90
2024-02-20T01:04:18.111Z,5.90
2024-02-20T01:05:26.030Z,6.10
2024-02-20T01:06:31.107Z,6.00
2024-02-20T01:07:44.922Z,6.10
2024-02-20T01:08:50.293Z,6.10
2024-02-20T01:10:01.193Z,6.20
2024-02-20T01:11:06.293Z,6.20
2024-02-20T01:12:18.304Z,6.10
2024-02-20T01:13:26.116Z,5.80
2024-02-20T01:14:35.108Z,6.00
2024-02-20T01:15:50.650Z,6.10
2024-02-20T01:17:02.043Z,6.10
2024-02-20T01:18:06.768Z,6.30
2024-02-20T01:19:18.565Z,6.00
2024-02-20T01:20:27.470Z,6.10
2024-02-20T01:21:41.674Z,6.10
2024-02-20T01:22:50.261Z,6.10
2024-02-20T01:23:56.742Z,6.10
2024-02-20T01:25:02.921Z,6.20
2024-02-20T01:26:14.241Z,6.20
2024-02-20T01:27:22.206Z,6.30
2024-02-20T01:28:26.564Z,6.20
2024-02-20T01:29:38.335Z,6.20
2024-02-20T01:30:45.994Z,6.20
2024-02-20T01:31:51.408Z,6.20
2024-02-20T01:33:03.405Z,6.20
2024-02-20T01:34:10.717Z,6.30
2024-02-20T01:35:19.480Z,6.30
2024-02-20T01:36:26.156Z,6.30
2024-02-20T01:37:30.360Z,6.40
2024-02-20T01:38:38.989Z,6.50
2024-02-20T01:39:42.639Z,6.40
2024-02-20T01:40:50.578Z,6.40
2024-02-20T01:41:54.851Z,6.20
2024-02-20T01:43:03.460Z,6.30
2024-02-20T01:44:11.292Z,6.30
2024-02-20T01:45:23.051Z,6.30
2024-02-20T01:46:26.346Z,6.40
2024-02-20T01:47:30.594Z,6.20
2024-02-20T01:48:39.482Z,6.30
2024-02-20T01:49:54.704Z,6.30
2024-02-20T01:51:02.755Z,6.30
2024-02-20T01:52:14.155Z,6.30
2024-02-20T01:53:21.515Z,6.30
2024-02-20T01:54:29.615Z,6.20
2024-02-20T01:55:39.140Z,6.10
2024-02-20T01:57:02.959Z,6.20
2024-02-20T01:58:10.654Z,6.20
2024-02-20T01:59:23.075Z,6.10
2024-02-20T02:00:39.701Z,6.20
2024-02-20T02:01:47.374Z,6.20
2024-02-20T02:02:58.287Z,6.30
2024-02-20T02:04:02.106Z,6.20
2024-02-20T02:05:10.900Z,6.30
2024-02-20T02:06:17.682Z,6.20
2024-02-20T02:07:20.576Z,6.20
2024-02-20T02:08:34.387Z,6.30
2024-02-20T02:09:38.592Z,6.30
2024-02-20T02:10:50.329Z,6.40
2024-02-20T02:11:57.857Z,6.40
2024-02-20T02:13:10.550Z,6.40
2024-02-20T02:14:18.671Z,6.50
2024-02-20T02:15:29.670Z,6.50
2024-02-20T02:16:38.551Z,6.30
2024-02-20T02:17:49.959Z,6.60
2024-02-20T02:18:53.490Z,6.50
2024-02-20T02:20:08.628Z,6.60
2024-02-20T02:21:11.192Z,6.60
2024-02-20T02:22:20.642Z,6.70
2024-02-20T02:23:26.126Z,6.60
2024-02-20T02:24:34.525Z,6.60
2024-02-20T02:25:42.990Z,6.60
2024-02-20T02:26:54.412Z,6.60
2024-02-20T02:27:58.359Z,6.60
2024-02-20T02:29:08.576Z,6.50
2024-02-20T02:30:18.771Z,6.50
2024-02-20T02:31:26.061Z,6.50
2024-02-20T02:32:28.946Z,6.40
2024-02-20T02:33:34.067Z,6.40
2024-02-20T02:34:37.538Z,6.50
2024-02-20T02:35:50.145Z,6.40
2024-02-20T02:36:54.890Z,6.30
2024-02-20T02:38:05.016Z,6.40
2024-02-20T02:39:16.419Z,6.40
2024-02-20T02:40:22.256Z,6.50
2024-02-20T02:41:31.558Z,6.50
2024-02-20T02:42:42.536Z,6.40
2024-02-20T02:43:47.562Z,6.40
2024-02-20T02:45:05.612Z,6.40
2024-02-20T02:46:10.367Z,6.50
2024-02-20T02:47:22.306Z,6.50
2024-02-20T02:48:27.538Z,6.60
2024-02-20T02:49:34.428Z,6.60
2024-02-20T02:51:13.986Z,6.60
2024-02-20T02:52:10.179Z,6.40
2024-02-20T02:53:17.731Z,6.50
2024-02-20T02:54:26.552Z,6.50
2024-02-20T02:55:31.580Z,6.50
2024-02-20T02:56:41.561Z,6.40
2024-02-20T02:57:50.929Z,6.50
2024-02-20T02:59:02.494Z,6.50
2024-02-20T03:00:18.588Z,6.60
2024-02-20T03:01:26.846Z,6.60
2024-02-20T03:02:37.235Z,6.60
2024-02-20T03:03:46.846Z,6.60
2024-02-20T03:04:55.502Z,6.60
2024-02-20T03:06:07.268Z,6.50
2024-02-20T03:07:11.016Z,6.50
2024-02-20T03:08:26.740Z,6.40
2024-02-20T03:09:37.689Z,6.40
2024-02-20T03:10:43.720Z,6.40
2024-02-20T03:11:50.847Z,6.40
2024-02-20T03:13:02.657Z,6.40
2024-02-20T03:14:09.830Z,6.40
2024-02-20T03:15:14.092Z,6.40
2024-02-20T03:16:17.411Z,6.40
2024-02-20T03:17:23.263Z,6.40
2024-02-20T03:18:30.879Z,6.40
2024-02-20T03:19:42.658Z,6.50
2024-02-20T03:20:47.541Z,6.50
2024-02-20T03:22:02.553Z,6.50
2024-02-20T03:23:09.964Z,6.50
2024-02-20T03:24:17.922Z,6.50
2024-02-20T03:25:23.037Z,6.60
2024-02-20T03:26:30.792Z,6.60
2024-02-20T03:27:43.069Z,6.70
2024-02-20T03:28:50.412Z,6.60
2024-02-20T03:29:58.381Z,6.70
2024-02-20T03:32:57.876Z,6.60
2024-02-20T03:34:04.229Z,6.50
2024-02-20T03:35:12.397Z,6.70
2024-02-20T03:36:15.196Z,6.60
2024-02-20T03:37:22.129Z,6.60
2024-02-20T03:38:29.283Z,6.50
2024-02-20T03:39:33.208Z,6.50
2024-02-20T03:40:36.201Z,6.60
2024-02-20T03:41:40.350Z,6.50
2024-02-20T03:42:44.145Z,6.50
2024-02-20T03:43:52.083Z,6.50
2024-02-20T03:44:54.865Z,6.50
2024-02-20T03:46:00.077Z,6.60
2024-02-20T03:47:05.565Z,6.60
2024-02-20T03:48:12.506Z,6.50
2024-02-20T03:49:18.674Z,6.50
2024-02-20T03:50:24.203Z,6.60
2024-02-20T03:51:26.781Z,6.60
2024-02-20T03:52:34.241Z,6.60
2024-02-20T03:53:41.773Z,6.60
2024-02-20T03:54:46.329Z,6.60
2024-02-20T03:55:54.168Z,6.60
2024-02-20T03:56:58.826Z,6.70
2024-02-20T03:58:06.005Z,6.50
2024-02-20T03:59:12.085Z,6.50
2024-02-20T04:00:17.054Z,6.40
2024-02-20T04:01:21.345Z,6.50
2024-02-20T04:02:28.230Z,6.50
2024-02-20T04:03:32.223Z,6.60
2024-02-20T04:04:38.123Z,6.60
2024-02-20T04:05:44.236Z,6.70
2024-02-20T04:06:50.434Z,6.70
2024-02-20T04:07:56.045Z,6.60
2024-02-20T04:08:58.557Z,6.60
2024-02-20T04:10:05.275Z,6.60
2024-02-20T04:11:10.371Z,6.10
2024-02-20T04:12:16.673Z,6.70
2024-02-20T04:13:21.193Z,6.70
2024-02-20T04:14:29.350Z,6.70
2024-02-20T04:15:32.170Z,6.70
2024-02-20T04:16:36.202Z,6.40
2024-02-20T04:17:38.939Z,6.40
2024-02-20T04:18:45.790Z,6.40
2024-02-20T04:19:49.955Z,6.50
2024-02-20T04:20:57.274Z,6.50
2024-02-20T04:22:05.128Z,6.40
2024-02-20T04:23:09.574Z,6.50
2024-02-20T04:24:15.347Z,6.50
2024-02-20T04:25:20.109Z,6.60
2024-02-20T04:26:22.920Z,6.60
2024-02-20T04:27:32.042Z,6.60
2024-02-20T04:28:37.609Z,6.60
2024-02-20T04:29:50.183Z,6.70
2024-02-20T04:30:53.921Z,6.60
2024-02-20T04:31:58.499Z,6.40
2024-02-20T04:33:05.438Z,6.60
2024-02-20T04:34:10.889Z,6.60
2024-02-20T04:35:14.753Z,6.60
2024-02-20T04:36:21.650Z,6.70
2024-02-20T04:37:25.457Z,6.70
2024-02-20T04:38:30.293Z,6.70
2024-02-20T04:39:34.094Z,6.70
2024-02-20T04:40:38.750Z,6.80
2024-02-20T04:41:44.118Z,7.20
2024-02-20T04:42:48.130Z,6.60
2024-02-20T04:43:52.017Z,6.60
2024-02-20T04:45:01.317Z,6.60
2024-02-20T04:46:06.494Z,6.40
2024-02-20T04:47:13.291Z,6.30
2024-02-20T04:48:16.196Z,6.30
2024-02-20T04:49:20.121Z,6.40
2024-02-20T04:50:24.090Z,6.40
2024-02-20T04:51:27.965Z,6.30
2024-02-20T04:52:30.842Z,6.40
2024-02-20T04:53:38.745Z,6.30
2024-02-20T04:54:45.483Z,6.30
2024-02-20T04:55:49.472Z,6.40
2024-02-20T04:56:53.300Z,6.50
2024-02-20T04:57:59.991Z,6.50
2024-02-20T04:59:02.939Z,6.60
2024-02-20T05:00:14.245Z,6.70
2024-02-20T05:01:21.177Z,6.50
2024-02-20T05:02:25.637Z,6.50
2024-02-20T05:03:30.095Z,6.40
2024-02-20T05:04:38.874Z,6.50
2024-02-20T05:05:42.362Z,6.50
2024-02-20T05:06:54.246Z,6.60
2024-02-20T05:07:59.969Z,6.20
2024-02-20T05:09:06.562Z,6.60
2024-02-20T05:10:12.084Z,6.70
2024-02-20T05:11:16.071Z,6.60
2024-02-20T05:12:18.628Z,6.50
2024-02-20T05:13:25.609Z,6.50
2024-02-20T05:14:28.994Z,6.60
2024-02-20T05:15:42.428Z,6.60
2024-02-20T05:16:48.094Z,6.60
2024-02-20T05:17:52.473Z,6.60
2024-02-20T05:18:57.808Z,6.60
2024-02-20T05:20:13.332Z,6.60
2024-02-20T05:21:16.049Z,6.60
2024-02-20T05:22:21.286Z,6.50
2024-02-20T05:23:25.376Z,6.50
2024-02-20T05:24:29.682Z,6.50
2024-02-20T05:25:33.514Z,6.60
2024-02-20T05:26:37.452Z,6.50
2024-02-20T05:27:41.474Z,6.60
2024-02-20T05:28:45.681Z,6.60
2024-02-20T05:29:48.783Z,6.60
2024-02-20T05:30:58.108Z,6.70
2024-02-20T05:32:02.700Z,6.80
2024-02-20T05:33:08.098Z,6.70
2024-02-20T05:34:11.545Z,6.70
2024-02-20T05:35:17.936Z,6.70
2024-02-20T05:36:21.568Z,6.70
2024-02-20T05:37:26.316Z,6.80
2024-02-20T05:38:34.139Z,6.80
2024-02-20T05:39:39.000Z,6.80
2024-02-20T05:40:42.411Z,6.70
2024-02-20T05:41:46.913Z,6.60
2024-02-20T05:42:50.288Z,6.70
2024-02-20T05:43:58.806Z,6.80
2024-02-20T05:45:04.178Z,6.70
2024-02-20T05:47:09.208Z,6.70
2024-02-20T05:48:17.535Z,6.70
2024-02-20T05:49:21.503Z,6.80
2024-02-20T05:50:29.789Z,6.70
2024-02-20T05:51:33.356Z,6.80
2024-02-20T05:52:42.308Z,6.80
2024-02-20T05:53:46.472Z,6.70
2024-02-20T05:54:55.972Z,6.80
2024-02-20T05:55:58.691Z,6.90
2024-02-20T05:57:06.639Z,6.80
2024-02-20T05:58:10.141Z,6.80
2024-02-20T05:59:14.568Z,6.80
2024-02-20T06:00:21.745Z,6.80
2024-02-20T06:01:25.638Z,6.80
2024-02-20T06:02:30.912Z,6.80
2024-02-20T06:03:37.736Z,6.70
2024-02-20T06:04:41.650Z,6.80
2024-02-20T06:05:48.403Z,6.80
2024-02-20T06:06:52.629Z,6.80
2024-02-20T06:07:57.137Z,6.70
2024-02-20T06:09:02.146Z,6.70
2024-02-20T06:10:10.545Z,6.70
2024-02-20T06:11:20.192Z,6.50
2024-02-20T06:12:25.262Z,6.70
2024-02-20T06:13:28.094Z,6.70
2024-02-20T06:14:34.360Z,6.60
2024-02-20T06:15:42.153Z,6.60
2024-02-20T06:16:54.104Z,6.60
2024-02-20T06:17:59.979Z,6.70
2024-02-20T06:19:05.884Z,6.70
2024-02-20T06:20:10.306Z,6.70
2024-02-20T06:21:14.765Z,6.30
2024-02-20T06:22:18.740Z,6.50
2024-02-20T06:23:23.980Z,6.70
2024-02-20T06:24:27.500Z,6.60
2024-02-20T06:25:34.094Z,6.60
2024-02-20T06:26:42.406Z,6.70
2024-02-20T06:27:54.159Z,6.70
2024-02-20T06:28:58.762Z,6.70
2024-02-20T06:30:05.404Z,6.80
2024-02-20T06:31:10.008Z,6.90
2024-02-20T06:32:16.926Z,6.90
2024-02-20T06:33:21.870Z,7.40
2024-02-20T06:34:26.633Z,6.80
2024-02-20T06:35:33.304Z,6.80
2024-02-20T06:36:36.261Z,6.80
2024-02-20T06:37:41.202Z,6.80
2024-02-20T06:38:44.107Z,6.80
2024-02-20T06:39:48.205Z,6.70
2024-02-20T06:40:54.019Z,6.70
2024-02-20T06:42:04.013Z,6.80
2024-02-20T06:43:06.981Z,6.90
2024-02-20T06:44:12.204Z,6.80
2024-02-20T06:45:17.053Z,6.90
2024-02-20T06:46:25.571Z,6.70
2024-02-20T06:47:29.302Z,6.80
2024-02-20T06:48:35.601Z,6.90
2024-02-20T06:49:41.576Z,6.80
2024-02-20T06:50:46.490Z,6.80
2024-02-20T06:51:50.067Z,6.90
2024-02-20T06:52:57.972Z,6.90
2024-02-20T06:54:05.446Z,6.90
2024-02-20T06:55:12.022Z,6.80
2024-02-20T06:56:16.020Z,6.90
2024-02-20T06:57:20.090Z,7.00
2024-02-20T06:58:22.892Z,7.00
2024-02-20T06:59:28.013Z,7.10
2024-02-20T07:00:30.797Z,7.10
2024-02-20T07:01:49.985Z,7.00
2024-02-20T07:02:54.134Z,7.00
2024-02-20T07:03:58.668Z,7.20
2024-02-20T07:05:09.974Z,7.10
2024-02-20T07:06:14.952Z,7.20
2024-02-20T07:07:18.661Z,7.10
2024-02-20T07:08:25.354Z,7.20
2024-02-20T07:09:28.026Z,7.10
2024-02-20T07:10:32.713Z,7.10
2024-02-20T07:11:37.990Z,7.10
2024-02-20T07:12:47.375Z,7.10
2024-02-20T07:13:53.082Z,7.10
2024-02-20T07:14:57.392Z,6.50
2024-02-20T07:16:01.220Z,7.10
2024-02-20T07:17:17.984Z,7.10
2024-02-20T07:18:22.086Z,6.80
2024-02-20T07:19:27.016Z,7.00
2024-02-20T07:20:34.768Z,7.10
2024-02-20T07:21:45.361Z,7.20
2024-02-20T07:22:52.238Z,7.20
2024-02-20T07:23:59.967Z,7.20
2024-02-20T07:25:06.977Z,7.10
2024-02-20T07:26:13.541Z,7.20
2024-02-20T07:27:17.564Z,7.20
2024-02-20T07:28:25.403Z,7.20
2024-02-20T07:29:29.515Z,7.20
2024-02-20T07:30:34.587Z,7.20
2024-02-20T07:31:38.807Z,7.20
2024-02-20T07:32:44.211Z,7.20
2024-02-20T07:34:00.225Z,7.20
2024-02-20T07:35:12.131Z,7.20
2024-02-20T07:36:20.324Z,7.20
2024-02-20T07:37:29.307Z,7.30
2024-02-20T07:38:35.863Z,7.30
2024-02-20T07:39:41.252Z,7.30
2024-02-20T07:40:44.764Z,7.20
2024-02-20T07:41:49.150Z,7.30
2024-02-20T07:42:52.473Z,7.30
2024-02-20T07:44:00.830Z,7.20
2024-02-20T07:45:05.279Z,7.20
2024-02-20T07:46:11.958Z,7.20
2024-02-20T07:47:15.831Z,7.30
2024-02-20T07:48:20.107Z,7.30
2024-02-20T07:49:25.455Z,7.20
2024-02-20T07:50:30.503Z,7.20
2024-02-20T07:51:37.185Z,7.10
2024-02-20T07:52:46.287Z,7.10
2024-02-20T07:53:50.369Z,7.20
2024-02-20T07:54:57.637Z,7.30
2024-02-20T07:56:09.965Z,7.90
2024-02-20T07:57:16.986Z,7.30
2024-02-20T07:58:27.849Z,7.30
2024-02-20T07:59:37.423Z,7.30
2024-02-20T08:00:42.290Z,7.40
2024-02-20T08:01:52.145Z,7.30
2024-02-20T08:02:58.593Z,7.30
2024-02-20T08:04:05.152Z,7.40
2024-02-20T08:05:12.832Z,7.40
2024-02-20T08:06:16.899Z,7.50
2024-02-20T08:07:23.752Z,7.30
2024-02-20T08:08:26.688Z,7.20
2024-02-20T08:09:34.252Z,7.10
2024-02-20T08:10:40.634Z,7.10
2024-02-20T08:11:48.186Z,7.20
2024-02-20T08:13:15.750Z,7.20
2024-02-20T08:14:31.475Z,7.10
2024-02-20T08:15:35.202Z,7.20
2024-02-20T08:16:40.989Z,7.20
2024-02-20T08:17:46.453Z,7.40
2024-02-20T08:18:52.085Z,7.40
2024-02-20T08:19:57.294Z,7.20
2024-02-20T08:21:01.177Z,7.30
2024-02-20T08:22:11.413Z,7.30
2024-02-20T08:23:22.273Z,7.30
2024-02-20T08:24:25.560Z,7.30
2024-02-20T08:25:29.609Z,7.30
2024-02-20T08:26:33.540Z,7.40
2024-02-20T08:27:37.961Z,7.40
2024-02-20T08:28:43.350Z,7.30
2024-02-20T08:29:48.110Z,7.30
2024-02-20T08:30:53.312Z,7.30
2024-02-20T08:32:13.844Z,7.30
2024-02-20T08:33:45.923Z,7.20
2024-02-20T08:34:49.928Z,7.10
2024-02-20T08:35:56.342Z,6.90
2024-02-20T08:36:59.897Z,7.00
2024-02-20T08:38:09.148Z,7.00
2024-02-20T08:39:14.357Z,7.00
2024-02-20T08:40:25.066Z,7.00
2024-02-20T08:41:28.026Z,7.10
2024-02-20T08:42:34.258Z,7.10
2024-02-20T08:43:37.759Z,7.10
2024-02-20T08:44:45.076Z,7.20
2024-02-20T08:45:48.954Z,7.20
2024-02-20T08:46:56.588Z,7.50
2024-02-20T08:48:07.982Z,7.30
2024-02-20T08:49:12.124Z,7.40
2024-02-20T08:50:18.528Z,7.40
2024-02-20T08:51:26.691Z,7.50
2024-02-20T08:52:37.199Z,7.40
2024-02-20T08:53:41.168Z,7.50
2024-02-20T08:54:47.718Z,7.60
2024-02-20T08:55:56.934Z,7.50
2024-02-20T08:56:59.891Z,7.60
2024-02-20T08:58:05.102Z,7.70
2024-02-20T08:59:09.780Z,7.60
2024-02-20T09:00:23.161Z,7.60
2024-02-20T09:01:36.086Z,7.40
2024-02-20T09:02:41.727Z,7.50
2024-02-20T09:03:45.263Z,7.60
2024-02-20T09:04:50.363Z,7.60
2024-02-20T09:05:57.151Z,7.60
2024-02-20T09:07:01.941Z,8.10
2024-02-20T09:08:06.169Z,7.70
2024-02-20T09:09:10.731Z,7.80
2024-02-20T09:10:20.749Z,7.70
2024-02-20T09:11:33.566Z,7.90
2024-02-20T09:12:37.025Z,7.90
2024-02-20T09:13:41.674Z,7.60
2024-02-20T09:14:47.813Z,7.60
2024-02-20T09:15:58.710Z,7.60
2024-02-20T09:17:05.004Z,7.70
2024-02-20T09:18:13.126Z,7.80
2024-02-20T09:19:20.225Z,7.90
2024-02-20T09:20:25.243Z,7.80
2024-02-20T09:21:29.457Z,7.90
2024-02-20T09:22:38.435Z,7.90
2024-02-20T09:23:45.529Z,7.80
2024-02-20T09:24:59.977Z,8.00
2024-02-20T09:26:17.184Z,7.90
2024-02-20T09:27:33.800Z,7.80
2024-02-20T09:28:38.183Z,7.90
2024-02-20T09:29:42.869Z,8.00
2024-02-20T09:30:48.065Z,8.00
2024-02-20T09:31:55.177Z,8.00
2024-02-20T09:32:59.252Z,8.10
2024-02-20T09:34:21.198Z,8.10
2024-02-20T09:35:46.843Z,8.20
2024-02-20T09:37:00.836Z,8.30
2024-02-20T09:38:06.324Z,8.30
2024-02-20T09:39:15.933Z,8.30
2024-02-20T09:40:22.323Z,8.20
2024-02-20T09:41:30.532Z,8.30
2024-02-20T09:42:45.721Z,8.30
2024-02-20T09:43:53.691Z,8.30
2024-02-20T09:44:58.511Z,8.20
2024-02-20T09:46:10.334Z,8.10
2024-02-20T09:47:18.012Z,8.10
2024-02-20T09:48:24.358Z,8.20
2024-02-20T09:49:30.108Z,8.10
2024-02-20T09:50:36.010Z,8.20
2024-02-20T09:51:41.548Z,8.30
2024-02-20T09:52:52.596Z,8.20
2024-02-20T09:53:58.787Z,8.10
2024-02-20T09:55:06.392Z,8.20
2024-02-20T09:56:10.125Z,8.20
2024-02-20T09:57:17.420Z,8.20
2024-02-20T09:58:27.329Z,8.20
2024-02-20T09:59:40.970Z,8.20
2024-02-20T10:00:52.750Z,8.20
2024-02-20T10:02:00.185Z,8.30
2024-02-20T10:03:06.523Z,8.20
2024-02-20T10:04:17.587Z,8.30
2024-02-20T10:05:26.373Z,8.40
2024-02-20T10:06:33.614Z,8.40
2024-02-20T10:07:40.137Z,8.40
2024-02-20T10:08:46.811Z,8.50
2024-02-20T10:10:01.716Z,8.50
2024-02-20T10:11:09.771Z,8.50
2024-02-20T10:12:26.749Z,8.50
2024-02-20T10:13:34.163Z,8.50
2024-02-20T10:14:37.733Z,8.60
2024-02-20T10:15:44.988Z,8.80
2024-02-20T10:17:01.183Z,8.70
2024-02-20T10:18:08.369Z,8.70
2024-02-20T10:19:13.384Z,8.80
2024-02-20T10:20:18.367Z,8.80
2024-02-20T10:21:22.137Z,8.90
2024-02-20T10:22:29.815Z,9.00
2024-02-20T10:23:33.777Z,9.00
2024-02-20T10:24:39.030Z,9.10
2024-02-20T10:25:42.785Z,9.10
2024-02-20T10:26:55.942Z,9.10
2024-02-20T10:28:07.029Z,9.20
2024-02-20T10:29:11.696Z,9.20
2024-02-20T10:30:15.968Z,9.30
2024-02-20T10:31:20.077Z,9.10
2024-02-20T10:32:24.099Z,9.20
2024-02-20T10:33:34.634Z,9.20
2024-02-20T10:34:38.947Z,9.30
2024-02-20T10:35:46.756Z,9.10
2024-02-20T10:36:56.448Z,9.30
2024-02-20T10:38:13.304Z,9.20
2024-02-20T10:41:26.504Z,9.00
2024-02-20T10:42:38.283Z,9.00
2024-02-20T10:42:50.934Z,8.90
2024-02-20T10:44:33.840Z,8.80
2024-02-20T10:46:37.141Z,8.80
2024-02-20T10:48:49.032Z,8.80
2024-02-20T10:49:46.864Z,8.80
2024-02-20T10:51:19.518Z,8.80
2024-02-20T10:52:24.242Z,8.90
2024-02-20T10:53:30.768Z,8.90
2024-02-20T10:54:43.450Z,9.00
2024-02-20T10:56:02.871Z,9.00
2024-02-20T10:57:12.172Z,9.10
2024-02-20T10:58:19.056Z,9.20
2024-02-20T10:59:26.817Z,9.20
2024-02-20T11:00:38.102Z,9.20
2024-02-20T11:01:49.786Z,9.20
2024-02-20T11:03:02.810Z,9.20
2024-02-20T11:04:14.954Z,9.40
2024-02-20T11:05:21.509Z,9.30
2024-02-20T11:06:25.997Z,9.40
2024-02-20T11:07:34.695Z,9.30
2024-02-20T11:08:38.432Z,9.00
2024-02-20T11:09:43.076Z,9.10
2024-02-20T11:10:47.087Z,9.20
2024-02-20T11:11:56.245Z,9.20
2024-02-20T11:13:01.306Z,9.30
2024-02-20T11:14:05.483Z,9.40
2024-02-20T11:15:18.674Z,9.40
2024-02-20T11:16:36.320Z,9.20
2024-02-20T11:17:41.906Z,9.30
2024-02-20T11:19:00.566Z,9.40
2024-02-20T11:20:12.386Z,9.50
2024-02-20T11:21:29.298Z,9.60
2024-02-20T11:22:33.571Z,9.80
2024-02-20T11:23:38.031Z,9.80
2024-02-20T11:24:43.867Z,9.90
2024-02-20T11:26:10.985Z,9.90
2024-02-20T11:27:30.005Z,10.00
2024-02-20T11:28:36.903Z,10.00
2024-02-20T11:29:40.398Z,10.00
2024-02-20T11:30:50.111Z,10.10
2024-02-20T11:32:00.179Z,10.10
2024-02-20T11:33:20.640Z,10.00
2024-02-20T11:34:29.408Z,9.90
2024-02-20T11:35:40.936Z,9.90
2024-02-20T11:36:50.730Z,9.80
2024-02-20T11:38:02.168Z,9.80
2024-02-20T11:39:08.104Z,9.80
2024-02-20T11:40:21.664Z,9.70
2024-02-20T11:41:26.641Z,9.80
2024-02-20T11:42:33.935Z,9.80
2024-02-20T11:43:40.311Z,9.80
2024-02-20T11:44:53.666Z,9.80
2024-02-20T11:46:06.070Z,9.90
2024-02-20T11:47:16.328Z,9.90
2024-02-20T11:48:21.489Z,9.90
2024-02-20T11:49:32.506Z,9.90
2024-02-20T11:50:38.924Z,10.00
2024-02-20T11:51:42.337Z,10.10
2024-02-20T11:52:51.206Z,10.00
2024-02-20T11:54:08.250Z,10.10
2024-02-20T11:55:14.274Z,9.90
2024-02-20T11:56:24.247Z,10.00
2024-02-20T11:57:28.219Z,10.00
2024-02-20T11:58:32.467Z,9.90
2024-02-20T11:59:37.959Z,9.90
2024-02-20T12:00:43.217Z,10.00
2024-02-20T12:01:49.784Z,10.00
2024-02-20T12:02:56.995Z,10.00
2024-02-20T12:04:06.287Z,10.00
2024-02-20T12:05:14.521Z,10.00
2024-02-20T12:06:28.242Z,10.00
2024-02-20T12:07:33.187Z,10.00
2024-02-20T12:08:47.095Z,9.90
2024-02-20T12:10:01.214Z,10.00
2024-02-20T12:11:10.965Z,10.00
2024-02-20T12:12:16.214Z,10.20
2024-02-20T12:13:21.816Z,10.40
2024-02-20T12:14:25.441Z,10.60
2024-02-20T12:15:37.994Z,10.60
2024-02-20T12:16:42.745Z,10.60
2024-02-20T12:18:06.606Z,10.80
2024-02-20T12:19:29.368Z,10.80
2024-02-20T12:20:36.270Z,10.60
2024-02-20T12:21:40.668Z,10.60
2024-02-20T12:22:47.293Z,10.50
2024-02-20T12:24:00.921Z,10.50
2024-02-20T12:25:10.192Z,10.50
2024-02-20T12:26:18.496Z,10.60
2024-02-20T12:27:26.354Z,11.10
2024-02-20T12:28:31.086Z,11.20
2024-02-20T12:29:43.907Z,11.60
2024-02-20T12:30:57.964Z,11.40
2024-02-20T12:32:09.837Z,11.50
2024-02-20T12:33:25.241Z,11.90
2024-02-20T12:34:34.870Z,11.90
2024-02-20T12:35:55.148Z,12.10
2024-02-20T12:37:00.515Z,12.10
2024-02-20T12:38:06.635Z,12.10
2024-02-20T12:39:13.637Z,12.00
2024-02-20T12:40:21.640Z,11.90
2024-02-20T12:41:26.996Z,11.60
2024-02-20T12:42:32.203Z,11.30
2024-02-20T12:43:38.498Z,11.20
2024-02-20T12:44:48.753Z,11.00
2024-02-20T12:45:53.682Z,11.00
2024-02-20T12:47:00.373Z,10.90
2024-02-20T12:48:05.161Z,10.80
2024-02-20T12:49:12.255Z,10.90
2024-02-20T12:50:18.286Z,10.90
2024-02-20T12:51:29.488Z,10.70
2024-02-20T12:52:33.469Z,10.80
2024-02-20T12:53:40.148Z,10.80
2024-02-20T12:54:42.936Z,10.90
2024-02-20T12:55:48.212Z,11.10
2024-02-20T12:56:53.987Z,11.20
2024-02-20T12:58:08.153Z,11.00
2024-02-20T12:59:13.474Z,11.00
2024-02-20T13:00:22.597Z,11.10
2024-02-20T13:01:30.852Z,11.20
2024-02-20T13:02:38.489Z,11.40
2024-02-20T13:03:48.265Z,11.10
2024-02-20T13:04:53.932Z,11.00
2024-02-20T13:06:12.265Z,11.10
2024-02-20T13:07:21.673Z,11.00
2024-02-20T13:08:26.169Z,11.10
2024-02-20T13:09:36.185Z,10.90
2024-02-20T13:10:40.033Z,10.80
2024-02-20T13:11:44.046Z,11.00
2024-02-20T13:12:48.272Z,10.80
2024-02-20T13:13:57.317Z,10.90
2024-02-20T13:15:39.812Z,10.90
2024-02-20T13:16:35.968Z,11.00
2024-02-20T13:17:46.538Z,10.70
2024-02-20T13:18:55.723Z,10.60
2024-02-20T13:21:46.365Z,10.50
2024-02-20T13:22:59.601Z,10.30
2024-02-20T13:24:29.530Z,10.50
2024-02-20T13:25:38.355Z,10.60
2024-02-20T13:26:57.474Z,10.70
2024-02-20T13:28:06.010Z,10.80
2024-02-20T13:29:29.566Z,10.90
2024-02-20T13:30:37.195Z,10.80
2024-02-20T13:31:58.041Z,10.90
2024-02-20T13:33:09.398Z,10.80
2024-02-20T13:34:17.412Z,11.10
2024-02-20T13:35:26.492Z,11.30
2024-02-20T13:36:41.483Z,11.20
2024-02-20T13:38:05.952Z,11.20
2024-02-20T13:39:19.922Z,11.30
2024-02-20T13:40:27.796Z,11.40
2024-02-20T13:41:37.209Z,11.40
2024-02-20T13:42:50.027Z,11.30
2024-02-20T13:44:00.077Z,11.00
2024-02-20T13:45:13.269Z,11.20
2024-02-20T13:46:18.264Z,11.10
2024-02-20T13:47:28.997Z,11.50
2024-02-20T13:48:36.584Z,11.10
2024-02-20T13:49:46.150Z,11.00
2024-02-20T13:50:58.210Z,10.80
2024-02-20T13:52:05.275Z,10.70
2024-02-20T13:53:08.939Z,10.60
2024-02-20T13:54:14.307Z,10.80
2024-02-20T13:55:28.776Z,10.80
2024-02-20T13:56:37.393Z,10.80
2024-02-20T13:57:41.000Z,10.80
2024-02-20T13:58:45.632Z,10.80
2024-02-20T14:00:22.308Z,10.80
2024-02-20T14:01:30.966Z,10.90
2024-02-20T14:02:49.247Z,10.90
2024-02-20T14:04:06.324Z,11.10
2024-02-20T14:05:20.812Z,10.90
2024-02-20T14:06:42.444Z,10.50
2024-02-20T14:08:01.866Z,10.30
2024-02-20T14:09:12.663Z,10.30
2024-02-20T14:10:25.700Z,10.30
2024-02-20T14:11:35.682Z,10.30
2024-02-20T14:12:50.823Z,9.90
2024-02-20T14:14:45.797Z,10.10
2024-02-20T14:16:36.192Z,10.20
2024-02-20T14:17:52.268Z,10.40
2024-02-20T14:18:59.603Z,10.50
2024-02-20T14:20:05.653Z,10.50
2024-02-20T14:21:11.973Z,10.40
2024-02-20T14:22:20.697Z,10.40
2024-02-20T14:23:34.022Z,10.10
2024-02-20T14:24:48.913Z,10.10
2024-02-20T14:26:04.343Z,10.00
2024-02-20T14:28:23.818Z,9.90
2024-02-20T14:29:30.397Z,9.90
2024-02-20T14:30:45.345Z,10.00
2024-02-20T14:32:08.369Z,10.00
2024-02-20T14:33:21.852Z,10.00
2024-02-20T14:34:31.970Z,10.00
2024-02-20T14:35:37.581Z,10.00
2024-02-20T14:36:45.449Z,10.20
2024-02-20T14:37:52.314Z,10.50
2024-02-20T14:39:01.138Z,10.50
2024-02-20T14:40:09.271Z,10.50
2024-02-20T14:41:16.969Z,10.50
2024-02-20T14:42:19.591Z,10.50
2024-02-20T14:43:24.606Z,10.60
2024-02-20T14:44:33.668Z,10.50
2024-02-20T14:45:47.574Z,10.50
2024-02-20T14:46:57.896Z,10.50
2024-02-20T14:48:05.264Z,10.40
2024-02-20T14:49:15.819Z,10.30
2024-02-20T14:50:22.342Z,10.30
2024-02-20T14:51:32.649Z,10.30
2024-02-20T14:53:02.227Z,10.30
2024-02-20T14:54:29.443Z,10.30
2024-02-20T14:55:35.715Z,10.40
2024-02-20T14:56:38.316Z,10.40
2024-02-20T14:57:53.287Z,10.30
2024-02-20T14:59:05.433Z,10.50
2024-02-20T15:00:23.819Z,10.60
2024-02-20T15:01:40.024Z,10.40
2024-02-20T15:03:01.625Z,10.50
2024-02-20T15:04:08.378Z,10.80
2024-02-20T15:05:18.435Z,10.20
2024-02-20T15:06:32.417Z,10.10
2024-02-20T15:07:39.695Z,10.00
2024-02-20T15:08:43.866Z,9.90
2024-02-20T15:10:28.295Z,9.80
2024-02-20T15:11:22.506Z,9.60
2024-02-20T15:12:38.889Z,9.60